Time;durP1;ratioP1;P1;durP2;ratioP2;P2;SDS_P1;SDS_P2;PMS_P1;PMS_P2;Temp;Humidity;BMP_temperature;BMP_pressure;BME280_temperature;BME280_humidity;BME280_pressure;Samples;Min_cycle;Max_cycle;Signal;HPM_P1;HPM_P2
2021/05/31 00:02:09;;;;;;;6.27;4.00;;;17.60;1.00;;;;;;4975259;28;20172;-81
2021/05/31 00:04:35;;;;;;;6.70;4.20;;;17.60;1.00;;;;;;4974911;28;20168;-81
2021/05/31 00:07:15;;;;;;;6.27;3.83;;;17.50;1.00;;;;;;4985799;28;20183;-80
2021/05/31 00:09:42;;;;;;;4.57;3.60;;;17.50;1.00;;;;;;4978523;28;20183;-80
2021/05/31 00:12:15;;;;;;;7.43;3.97;;;17.40;1.00;;;;;;4975491;28;20156;-80
2021/05/31 00:14:45;;;;;;;7.87;4.00;;;17.30;1.00;;;;;;4974646;28;20203;-81
2021/05/31 00:17:11;;;;;;;5.17;3.87;;;17.50;1.00;;;;;;4974738;28;20202;-81
2021/05/31 00:19:37;;;;;;;6.40;3.90;;;17.50;1.00;;;;;;4974500;28;20534;-81
2021/05/31 00:22:04;;;;;;;4.80;3.70;;;17.40;1.00;;;;;;4974790;28;20250;-81
2021/05/31 00:24:30;;;;;;;6.30;3.90;;;17.30;1.00;;;;;;4975145;28;20222;-81
2021/05/31 00:26:56;;;;;;;7.00;3.90;;;17.30;1.00;;;;;;4990108;28;20239;-81
2021/05/31 00:29:24;;;;;;;5.30;3.60;;;17.30;1.00;;;;;;4993863;28;20191;-82
2021/05/31 00:31:57;;;;;;;4.87;3.77;;;17.30;1.00;;;;;;4974743;28;20664;-80
2021/05/31 00:34:29;;;;;;;6.30;3.90;;;17.30;1.00;;;;;;4974798;28;20222;-80
2021/05/31 00:37:00;;;;;;;5.50;3.93;;;17.20;1.00;;;;;;4974676;28;20652;-81
2021/05/31 00:39:30;;;;;;;5.53;4.33;;;17.20;1.00;;;;;;4974233;28;20171;-81
2021/05/31 00:41:59;;;;;;;6.47;3.80;;;17.10;1.00;;;;;;4974568;28;20194;-81
2021/05/31 00:44:25;;;;;;;5.67;3.83;;;17.10;1.00;;;;;;4974457;28;20511;-82
2021/05/31 00:46:53;;;;;;;8.00;3.73;;;17.10;1.00;;;;;;4974426;28;20567;-81
2021/05/31 00:49:25;;;;;;;5.43;3.77;;;17.10;1.00;;;;;;4974351;28;20254;-81
2021/05/31 00:51:52;;;;;;;5.27;4.07;;;17.10;1.00;;;;;;4974179;28;20172;-81
2021/05/31 00:54:22;;;;;;;5.23;3.70;;;17.10;1.00;;;;;;4974092;28;20254;-81
2021/05/31 00:56:51;;;;;;;6.17;3.70;;;17.00;1.00;;;;;;4973015;28;20190;-81
2021/05/31 00:59:17;;;;;;;5.77;3.70;;;17.00;1.00;;;;;;4974317;28;20541;-81
2021/05/31 01:01:43;;;;;;;6.27;4.03;;;16.90;1.00;;;;;;4974113;28;20587;-81
2021/05/31 01:04:09;;;;;;;6.33;3.57;;;16.90;1.00;;;;;;4989326;28;20183;-81
2021/05/31 01:06:43;;;;;;;4.57;3.60;;;16.90;1.00;;;;;;4974202;28;20240;-81
2021/05/31 01:09:16;;;;;;;5.70;4.03;;;16.90;1.00;;;;;;4974037;28;20170;-81
2021/05/31 01:11:52;;;;;;;6.80;3.57;;;16.90;1.00;;;;;;4989295;28;20183;-81
2021/05/31 01:14:32;;;;;;;5.67;3.40;;;16.80;1.00;;;;;;4973317;28;20177;-80
2021/05/31 01:17:34;;;;;;;5.50;4.20;;;16.80;1.00;;;;;;4974511;28;20696;-81
2021/05/31 01:20:29;;;;;;;4.57;3.43;;;16.80;1.00;;;;;;4974038;28;20189;-81
2021/05/31 01:22:57;;;;;;;4.77;3.73;;;16.90;1.00;;;;;;4973824;28;20182;-81
2021/05/31 01:25:48;;;;;;;7.40;3.80;;;17.00;1.00;;;;;;4973905;28;20211;-81
2021/05/31 01:28:53;;;;;;;6.40;4.20;;;17.00;1.00;;;;;;4974066;28;20240;-81
2021/05/31 01:31:48;;;;;;;8.40;4.10;;;17.00;1.00;;;;;;4981192;28;20191;-81
2021/05/31 01:34:58;;;;;;;5.17;3.80;;;16.90;1.00;;;;;;4977902;28;20532;-81
2021/05/31 01:37:40;;;;;;;7.50;4.40;;;16.90;1.00;;;;;;4984368;28;20190;-80
2021/05/31 01:40:33;;;;;;;6.37;4.20;;;16.70;1.00;;;;;;4983461;28;20172;-79
2021/05/31 01:43:05;;;;;;;7.70;4.20;;;16.60;1.00;;;;;;4984067;28;20179;-81
2021/05/31 01:45:34;;;;;;;6.13;4.17;;;16.50;1.00;;;;;;4988806;28;20248;-81
2021/05/31 01:48:02;;;;;;;5.97;4.23;;;16.40;1.00;;;;;;4992799;28;20181;-80
2021/05/31 01:50:34;;;;;;;5.90;4.70;;;16.40;1.00;;;;;;4977012;28;20260;-80
2021/05/31 01:53:00;;;;;;;6.13;4.03;;;16.50;1.00;;;;;;4977378;28;20201;-81
2021/05/31 01:55:27;;;;;;;6.80;4.10;;;16.50;1.00;;;;;;4977290;28;20241;-81
2021/05/31 01:58:03;;;;;;;6.93;4.10;;;16.50;1.00;;;;;;4977069;28;20180;-81
2021/05/31 02:00:33;;;;;;;5.43;3.73;;;16.50;1.00;;;;;;4992612;28;20192;-81
2021/05/31 02:03:09;;;;;;;5.73;3.90;;;16.60;1.00;;;;;;4977742;28;20545;-81
2021/05/31 02:09:10;;;;;;;6.30;4.30;;;16.50;1.00;;;;;;4970487;28;20172;-81
2021/05/31 02:12:21;;;;;;;6.10;4.33;;;16.40;1.00;;;;;;4976794;28;20168;-80
2021/05/31 02:15:08;;;;;;;5.43;3.80;;;16.40;1.00;;;;;;4976922;28;20176;-81
2021/05/31 02:17:44;;;;;;;6.17;4.70;;;16.40;1.00;;;;;;4976374;28;20538;-81
2021/05/31 02:20:26;;;;;;;5.93;4.33;;;16.30;1.00;;;;;;4976370;28;20171;-81
2021/05/31 02:23:34;;;;;;;6.87;4.50;;;16.20;1.00;;;;;;4976607;28;20180;-81
2021/05/31 02:26:06;;;;;;;7.07;4.87;;;16.20;1.00;;;;;;4976742;28;20572;-81
2021/05/31 02:28:49;;;;;;;7.00;4.47;;;16.10;1.00;;;;;;4976226;28;20189;-80
2021/05/31 02:32:07;;;;;;;7.03;4.80;;;16.10;1.00;;;;;;4976719;28;20168;-81
2021/05/31 02:35:11;;;;;;;6.43;4.20;;;16.10;1.00;;;;;;4976282;28;20225;-81
2021/05/31 02:38:19;;;;;;;5.33;4.57;;;16.00;1.00;;;;;;4975122;28;20194;-81
2021/05/31 02:40:48;;;;;;;7.00;4.20;;;15.90;1.00;;;;;;4975683;28;20249;-81
2021/05/31 02:43:46;;;;;;;6.87;4.20;;;15.80;1.00;;;;;;4992432;28;20181;-81
2021/05/31 02:46:45;;;;;;;8.17;4.57;;;15.60;1.00;;;;;;4982462;28;20227;-81
2021/05/31 02:49:47;;;;;;;7.87;4.80;;;15.70;1.00;;;;;;4980113;28;20171;-81
2021/05/31 03:00:32;;;;;;;6.50;4.90;;;15.50;1.00;;;;;;4954144;28;20309;-81
2021/05/31 03:06:40;;;;;;;7.57;4.60;;;15.30;1.00;;;;;;4916513;29;20654;-81
2021/05/31 03:13:18;;;;;;;7.13;5.47;;;15.20;1.00;;;;;;4823566;29;20686;-80
2021/05/31 03:16:15;;;;;;;6.90;5.07;;;15.00;4.30;;;;;;4829891;29;20200;-80
2021/05/31 03:18:52;;;;;;;7.90;5.70;;;15.00;8.90;;;;;;4878732;29;20216;-81
2021/05/31 03:22:17;;;;;;;7.47;5.67;;;14.90;11.50;;;;;;4923809;29;20189;-81
2021/05/31 03:24:46;;;;;;;8.17;5.67;;;14.80;12.70;;;;;;4919111;29;20201;-81
2021/05/31 03:31:41;;;;;;;9.20;5.47;;;14.60;19.40;;;;;;4935085;29;20265;-81
2021/05/31 03:34:52;;;;;;;10.23;6.17;;;14.60;18.70;;;;;;4934685;29;20212;-80
2021/05/31 03:37:46;;;;;;;9.30;5.63;;;14.70;18.50;;;;;;4935033;29;20231;-81
2021/05/31 03:41:36;;;;;;;;;;;;;;;;;;;;;
2021/05/31 03:44:20;;;;;;;8.53;5.63;;;14.70;18.10;;;;;;4934860;28;20201;-81
2021/05/31 03:47:33;;;;;;;8.73;5.70;;;14.50;20.70;;;;;;4918659;29;20230;-81
2021/05/31 03:57:40;;;;;;;9.93;5.53;;;14.30;27.00;;;;;;4900694;29;20590;-80
2021/05/31 04:13:01;;;;;;;11.80;6.10;;;14.80;11.00;;;;;;4927299;29;20202;-83
2021/05/31 04:18:54;;;;;;;9.07;5.83;;;14.80;8.80;;;;;;4908067;29;20225;-83
2021/05/31 04:21:26;;;;;;;8.30;6.07;;;14.90;6.00;;;;;;4952355;28;20188;-83
2021/05/31 04:23:59;;;;;;;9.73;5.63;;;14.90;4.10;;;;;;4974847;28;20180;-83
2021/05/31 04:26:39;;;;;;;11.17;5.93;;;15.00;3.00;;;;;;4975186;28;20203;-83
2021/05/31 04:29:32;;;;;;;12.73;6.17;;;15.00;3.90;;;;;;4976314;28;20167;-82
2021/05/31 04:32:03;;;;;;;11.07;6.03;;;15.00;1.00;;;;;;4974350;28;20203;-82
2021/05/31 04:34:41;;;;;;;11.47;6.23;;;15.10;1.00;;;;;;4974655;28;20197;-82
2021/05/31 04:37:19;;;;;;;10.73;6.50;;;15.10;1.00;;;;;;4974718;28;20226;-82
2021/05/31 04:40:04;;;;;;;10.57;5.70;;;15.20;1.00;;;;;;4974436;28;20194;-81
2021/05/31 04:42:51;;;;;;;9.73;5.53;;;15.20;1.00;;;;;;4975227;28;20171;-82
2021/05/31 04:45:17;;;;;;;10.13;6.07;;;15.20;1.00;;;;;;4989640;28;20216;-82
2021/05/31 04:48:07;;;;;;;9.60;5.53;;;15.20;1.00;;;;;;4977606;28;20169;-82
2021/05/31 04:50:39;;;;;;;8.80;5.47;;;15.30;1.00;;;;;;4974934;28;20178;-82
2021/05/31 04:53:08;;;;;;;7.93;6.20;;;15.40;1.00;;;;;;4974991;28;20501;-82
2021/05/31 04:55:36;;;;;;;12.53;6.87;;;15.30;1.00;;;;;;4974973;28;20204;-82
2021/05/31 04:58:10;;;;;;;11.37;6.03;;;15.40;1.00;;;;;;4975196;28;20640;-82
2021/05/31 05:00:52;;;;;;;11.43;6.30;;;15.40;1.00;;;;;;4974658;28;20194;-81
2021/05/31 05:03:24;;;;;;;8.83;6.30;;;15.50;1.00;;;;;;4974383;28;20529;-82
2021/05/31 05:05:56;;;;;;;10.70;7.27;;;15.60;1.00;;;;;;4993144;28;20280;-82
2021/05/31 05:08:22;;;;;;;11.27;6.37;;;15.70;1.00;;;;;;4978156;28;20251;-82
2021/05/31 05:10:48;;;;;;;9.47;5.87;;;15.80;1.00;;;;;;4978196;28;20234;-82
2021/05/31 05:13:14;;;;;;;13.03;6.47;;;15.80;1.00;;;;;;4977260;28;20186;-83
2021/05/31 05:15:40;;;;;;;11.57;6.77;;;15.80;1.00;;;;;;4977745;28;20190;-82
2021/05/31 05:18:18;;;;;;;9.10;6.60;;;16.00;1.00;;;;;;4978755;28;20162;-82
2021/05/31 05:21:36;;;;;;;;;;;;;;;;;;;;;
2021/05/31 05:24:43;;;;;;;15.43;6.33;;;16.10;1.00;;;;;;4979155;28;20230;-82
2021/05/31 05:27:15;;;;;;;12.43;6.47;;;16.20;1.00;;;;;;4980093;28;20204;-81
2021/05/31 05:30:06;;;;;;;11.50;6.30;;;16.30;1.00;;;;;;4977431;28;20214;-82
2021/05/31 05:32:41;;;;;;;9.90;6.43;;;16.30;1.00;;;;;;4978577;28;20240;-82
2021/05/31 05:35:33;;;;;;;11.47;6.30;;;16.40;1.00;;;;;;4978699;28;20174;-82
2021/05/31 05:41:13;;;;;;;9.70;5.60;;;16.70;1.00;;;;;;4989286;28;20541;-81
2021/05/31 05:48:44;;;;;;;9.87;6.20;;;17.00;1.00;;;;;;5018150;28;20192;-82
2021/05/31 05:54:23;;;;;;;7.73;5.03;;;17.20;1.00;;;;;;5015815;28;20198;-82
2021/05/31 05:56:59;;;;;;;9.13;5.43;;;17.20;1.00;;;;;;5030549;28;20186;-82
2021/05/31 05:59:30;;;;;;;7.90;5.53;;;17.30;1.00;;;;;;5033542;28;20170;-81
2021/05/31 06:02:01;;;;;;;7.63;5.80;;;17.40;1.00;;;;;;5002090;28;20182;-82
2021/05/31 06:04:32;;;;;;;9.13;5.73;;;17.60;1.00;;;;;;5000447;28;20252;-83
2021/05/31 06:06:58;;;;;;;9.07;5.73;;;17.50;1.00;;;;;;5014955;28;20252;-82
2021/05/31 06:09:24;;;;;;;8.40;5.47;;;17.60;1.00;;;;;;4998427;28;20172;-82
2021/05/31 06:12:08;;;;;;;8.87;5.43;;;17.80;1.00;;;;;;4997025;28;20641;-82
2021/05/31 06:14:35;;;;;;;13.67;5.10;;;18.00;1.00;;;;;;5004946;28;20190;-83
2021/05/31 06:17:04;;;;;;;11.77;5.60;;;18.00;1.00;;;;;;4999725;28;20532;-82
2021/05/31 06:19:30;;;;;;;11.10;7.20;;;18.00;1.00;;;;;;4995291;28;20179;-82
2021/05/31 06:21:56;;;;;;;6.67;4.80;;;18.10;99.90;;;;;;4997560;28;20262;-82
2021/05/31 06:24:21;;;;;;;7.93;5.13;;;18.10;99.90;;;;;;4996946;28;20202;-82
2021/05/31 06:26:55;;;;;;;7.70;4.90;;;18.30;99.90;;;;;;4995066;28;20305;-81
2021/05/31 06:29:21;;;;;;;7.23;4.90;;;18.60;99.90;;;;;;4996916;28;20226;-80
2021/05/31 06:31:47;;;;;;;8.03;4.70;;;18.70;67.70;;;;;;4995988;28;20178;-81
2021/05/31 06:34:13;;;;;;;9.00;4.60;;;18.90;1.00;;;;;;4993565;28;20245;-80
2021/05/31 06:36:44;;;;;;;7.57;4.60;;;18.90;1.00;;;;;;4993950;28;20709;-79
2021/05/31 06:39:13;;;;;;;7.70;4.77;;;18.80;33.10;;;;;;4997710;28;20199;-79
2021/05/31 06:41:39;;;;;;;8.97;4.60;;;18.80;62.20;;;;;;4975777;28;20267;-80
2021/05/31 06:44:06;;;;;;;9.33;4.50;;;18.90;99.90;;;;;;4986314;28;20231;-81
2021/05/31 06:46:34;;;;;;;7.40;4.43;;;18.80;1.00;;;;;;5015596;28;20218;-81
2021/05/31 06:49:00;;;;;;;8.37;4.60;;;18.70;99.90;;;;;;5003961;28;20270;-81
2021/05/31 06:51:26;;;;;;;4.30;3.80;;;18.80;1.00;;;;;;4986760;28;20583;-80
2021/05/31 06:53:52;;;;;;;5.67;4.00;;;18.80;1.00;;;;;;5010870;28;20626;-81
2021/05/31 06:56:19;;;;;;;7.27;4.17;;;18.90;1.00;;;;;;5013486;28;20627;-81
2021/05/31 06:58:46;;;;;;;8.40;3.93;;;18.90;99.90;;;;;;5014270;28;20174;-80
2021/05/31 07:01:12;;;;;;;9.87;4.10;;;19.00;99.90;;;;;;5013353;28;20228;-81
2021/05/31 07:03:38;;;;;;;8.00;4.13;;;18.90;1.00;;;;;;5014469;28;20162;-80
2021/05/31 07:06:05;;;;;;;8.23;4.30;;;19.00;99.90;;;;;;5014784;28;20206;-80
2021/05/31 07:08:31;;;;;;;7.40;4.13;;;19.10;1.00;;;;;;5014812;28;20189;-80
2021/05/31 07:11:01;;;;;;;8.30;3.80;;;19.20;1.00;;;;;;4997089;28;20190;-80
2021/05/31 07:13:29;;;;;;;6.07;3.60;;;19.20;92.30;;;;;;4995183;28;20178;-81
2021/05/31 07:15:56;;;;;;;3.97;2.83;;;19.30;99.90;;;;;;5004982;28;20174;-80
2021/05/31 07:18:57;;;;;;;5.03;3.07;;;19.40;1.00;;;;;;5020841;28;20170;-80
2021/05/31 07:21:23;;;;;;;5.33;2.90;;;19.50;1.00;;;;;;4990283;28;20635;-80
2021/05/31 07:23:48;;;;;;;6.17;3.60;;;19.50;1.00;;;;;;4993731;28;20189;-81
2021/05/31 07:26:22;;;;;;;6.47;3.70;;;19.60;99.90;;;;;;4992700;28;20207;-80
2021/05/31 07:28:52;;;;;;;6.83;3.17;;;19.60;44.30;;;;;;4995402;28;20262;-81
2021/05/31 07:31:39;;;;;;;4.73;3.03;;;19.70;1.00;;;;;;4976417;28;20704;-81
2021/05/31 07:34:07;;;;;;;4.90;3.40;;;19.70;20.40;;;;;;4975687;28;20236;-81
2021/05/31 07:36:33;;;;;;;5.23;3.00;;;19.80;5.60;;;;;;4976024;28;20191;-81
2021/05/31 07:38:58;;;;;;;5.50;3.13;;;19.90;99.90;;;;;;4973910;28;20185;-82
2021/05/31 07:41:24;;;;;;;5.50;3.30;;;19.90;99.90;;;;;;4974741;28;20186;-82
2021/05/31 07:43:53;;;;;;;4.73;3.20;;;19.90;1.00;;;;;;4985459;28;20188;-82
2021/05/31 07:46:27;;;;;;;5.77;3.30;;;20.00;1.00;;;;;;5011132;28;20215;-82
2021/05/31 07:49:02;;;;;;;4.33;3.10;;;20.30;1.00;;;;;;4992034;28;20234;-82
2021/05/31 07:51:31;;;;;;;6.73;3.20;;;20.30;1.00;;;;;;4983629;28;20184;-82
2021/05/31 07:54:00;;;;;;;5.03;3.10;;;20.40;1.00;;;;;;4974158;28;20240;-82
2021/05/31 07:56:36;;;;;;;7.47;3.13;;;20.40;99.90;;;;;;4974902;28;20693;-82
2021/05/31 07:59:06;;;;;;;6.10;3.57;;;20.50;1.00;;;;;;4992449;28;20508;-82
2021/05/31 08:01:34;;;;;;;6.63;3.73;;;20.50;99.90;;;;;;4986603;28;20187;-81
2021/05/31 08:04:00;;;;;;;4.90;3.17;;;20.40;23.10;;;;;;4998302;28;20181;-82
2021/05/31 08:06:29;;;;;;;13.30;4.00;;;20.40;1.00;;;;;;4973999;28;20215;-81
2021/05/31 08:08:56;;;;;;;5.47;3.07;;;20.50;1.00;;;;;;4992273;28;20227;-82
2021/05/31 08:11:21;;;;;;;5.77;3.13;;;20.60;99.90;;;;;;4994152;28;20186;-82
2021/05/31 08:13:47;;;;;;;7.33;3.67;;;20.60;99.90;;;;;;5009555;28;20184;-82
2021/05/31 08:16:16;;;;;;;6.63;3.50;;;20.90;51.70;;;;;;4987370;28;20188;-82
2021/05/31 08:18:45;;;;;;;7.47;3.20;;;21.00;1.00;;;;;;4974705;28;20224;-82
2021/05/31 08:21:11;;;;;;;6.97;3.13;;;21.00;99.90;;;;;;4983932;28;20186;-81
2021/05/31 08:23:37;;;;;;;5.33;2.93;;;21.10;99.90;;;;;;4997981;28;20172;-79
2021/05/31 08:26:03;;;;;;;4.60;2.93;;;21.20;99.90;;;;;;4998387;28;20215;-81
2021/05/31 08:28:29;;;;;;;6.33;3.00;;;21.20;1.00;;;;;;4994680;28;20311;-82
2021/05/31 08:30:55;;;;;;;4.53;3.03;;;21.20;99.90;;;;;;4994046;28;20212;-81
2021/05/31 08:33:21;;;;;;;8.97;3.60;;;21.30;99.90;;;;;;4994794;28;20162;-81
2021/05/31 08:35:47;;;;;;;7.10;3.10;;;21.60;3.40;;;;;;4994340;28;20180;-82
2021/05/31 08:38:13;;;;;;;6.20;2.77;;;21.50;1.00;;;;;;4995766;28;20593;-79
2021/05/31 08:40:39;;;;;;;7.23;3.10;;;21.30;1.00;;;;;;5014075;28;20192;-77
2021/05/31 08:43:05;;;;;;;5.17;3.03;;;21.20;1.00;;;;;;4998601;28;20168;-77
2021/05/31 08:45:32;;;;;;;6.10;2.77;;;21.40;99.90;;;;;;5020714;28;20224;-77
2021/05/31 08:47:59;;;;;;;4.20;2.80;;;21.40;99.90;;;;;;5017361;28;20176;-78
2021/05/31 08:50:27;;;;;;;5.17;2.77;;;21.40;99.90;;;;;;5017005;28;20613;-76
2021/05/31 08:52:53;;;;;;;5.40;3.10;;;21.40;1.00;;;;;;5017103;28;20173;-76
2021/05/31 08:55:23;;;;;;;5.90;3.07;;;21.50;1.00;;;;;;5016983;28;20241;-76
2021/05/31 08:57:50;;;;;;;6.07;2.83;;;21.60;1.00;;;;;;5017018;28;20545;-76
2021/05/31 09:00:19;;;;;;;4.60;2.80;;;21.70;99.90;;;;;;5015485;28;20170;-77
2021/05/31 09:02:46;;;;;;;6.93;3.30;;;21.90;99.90;;;;;;5017691;28;20174;-78
2021/05/31 09:05:12;;;;;;;5.47;2.57;;;22.10;99.90;;;;;;5018527;28;20650;-74
2021/05/31 09:07:37;;;;;;;4.50;3.10;;;22.00;99.90;;;;;;5008739;28;20194;-78
2021/05/31 09:10:08;;;;;;;5.27;2.97;;;22.00;99.90;;;;;;4997536;28;20191;-76
2021/05/31 09:12:37;;;;;;;4.43;2.80;;;21.80;99.90;;;;;;4997256;28;20174;-78
2021/05/31 09:15:07;;;;;;;4.23;3.30;;;21.70;99.90;;;;;;4997535;28;20642;-77
2021/05/31 09:17:35;;;;;;;5.10;3.20;;;21.80;99.90;;;;;;4997063;28;20648;-75
2021/05/31 09:20:01;;;;;;;5.20;2.70;;;21.80;99.90;;;;;;4996965;28;20179;-77
2021/05/31 09:22:28;;;;;;;5.63;3.00;;;21.50;99.90;;;;;;4997017;28;20183;-76
2021/05/31 09:24:55;;;;;;;4.53;2.93;;;21.50;99.90;;;;;;4996235;28;20182;-77
2021/05/31 09:27:21;;;;;;;4.53;2.73;;;21.50;1.00;;;;;;4997201;28;20181;-76
2021/05/31 09:30:00;;;;;;;3.80;3.20;;;21.60;1.00;;;;;;4997402;28;20281;-76
2021/05/31 09:32:27;;;;;;;5.33;3.00;;;21.70;1.00;;;;;;4996733;28;20177;-75
2021/05/31 09:35:12;;;;;;;6.53;3.33;;;21.60;1.00;;;;;;4996722;28;20225;-76
2021/05/31 09:37:48;;;;;;;5.67;3.20;;;21.70;1.00;;;;;;4997004;28;20206;-77
2021/05/31 09:40:32;;;;;;;4.57;3.23;;;21.80;1.00;;;;;;4997175;28;20181;-76
2021/05/31 09:43:03;;;;;;;6.73;3.00;;;21.80;1.00;;;;;;4996834;28;20675;-78
2021/05/31 09:45:30;;;;;;;7.07;3.63;;;21.60;1.00;;;;;;4997003;28;20224;-76
2021/05/31 09:48:00;;;;;;;6.17;2.97;;;21.60;1.00;;;;;;4996842;28;20179;-77
2021/05/31 09:50:28;;;;;;;6.63;3.20;;;21.50;1.00;;;;;;4994174;28;20211;-79
2021/05/31 09:53:11;;;;;;;4.33;2.90;;;21.70;1.00;;;;;;4996540;28;20193;-77
2021/05/31 09:55:40;;;;;;;6.97;3.07;;;21.60;1.00;;;;;;4996619;28;20171;-76
2021/05/31 09:58:11;;;;;;;6.77;3.50;;;21.50;1.00;;;;;;4997960;28;20171;-77
2021/05/31 10:00:39;;;;;;;5.50;3.57;;;21.50;1.00;;;;;;4996098;28;20171;-76
2021/05/31 10:03:20;;;;;;;4.53;3.37;;;21.50;1.00;;;;;;4996490;28;20250;-77
2021/05/31 10:05:55;;;;;;;4.97;3.07;;;21.50;1.00;;;;;;4997147;28;20216;-78
2021/05/31 10:08:40;;;;;;;5.03;3.33;;;21.50;1.00;;;;;;4996622;28;20207;-76
2021/05/31 10:11:07;;;;;;;4.77;3.40;;;21.80;1.00;;;;;;5011044;28;20200;-79
2021/05/31 10:13:36;;;;;;;5.10;3.03;;;22.10;99.90;;;;;;4996372;28;20176;-78
2021/05/31 10:16:04;;;;;;;7.83;3.53;;;22.20;99.90;;;;;;4996672;28;20181;-79
2021/05/31 10:18:31;;;;;;;5.57;3.13;;;22.00;99.90;;;;;;4996072;28;20183;-81
2021/05/31 10:20:58;;;;;;;6.63;3.53;;;22.10;99.90;;;;;;4997476;28;20212;-79
2021/05/31 10:23:24;;;;;;;4.47;3.07;;;22.20;99.90;;;;;;4996494;28;20638;-80
2021/05/31 10:25:58;;;;;;;4.03;3.30;;;22.40;99.90;;;;;;4996587;28;20209;-80
2021/05/31 10:28:36;;;;;;;8.63;3.07;;;22.30;99.90;;;;;;4996501;28;20171;-81
2021/05/31 10:31:05;;;;;;;5.47;3.37;;;22.40;99.90;;;;;;4997488;28;20175;-79
2021/05/31 10:33:37;;;;;;;5.70;3.30;;;22.40;99.90;;;;;;4996287;28;20511;-81
2021/05/31 10:36:18;;;;;;;5.43;3.00;;;22.50;99.90;;;;;;4997572;28;20170;-78
2021/05/31 10:38:50;;;;;;;5.53;3.03;;;22.50;99.90;;;;;;4994448;28;20197;-81
2021/05/31 10:41:19;;;;;;;6.23;3.10;;;22.70;99.90;;;;;;4995803;28;20174;-80
2021/05/31 10:43:54;;;;;;;4.43;3.20;;;23.00;99.90;;;;;;4995535;28;20241;-79
2021/05/31 10:46:25;;;;;;;4.70;3.10;;;23.00;99.90;;;;;;4995886;28;20213;-80
2021/05/31 10:48:52;;;;;;;5.83;3.27;;;22.70;99.90;;;;;;4994668;28;20180;-78
2021/05/31 10:51:25;;;;;;;6.27;3.30;;;23.00;99.90;;;;;;4995249;28;20186;-78
2021/05/31 10:53:50;;;;;;;5.60;3.20;;;23.30;99.90;;;;;;4996137;28;20321;-79
2021/05/31 10:56:28;;;;;;;6.50;3.40;;;23.10;99.90;;;;;;4996545;28;20222;-80
2021/05/31 10:58:57;;;;;;;4.43;3.27;;;22.80;99.90;;;;;;4996974;28;20172;-80
2021/05/31 11:01:31;;;;;;;4.27;3.37;;;22.60;99.90;;;;;;4996995;28;20179;-80
2021/05/31 11:04:06;;;;;;;4.40;3.07;;;22.60;99.90;;;;;;4996869;28;20182;-79
2021/05/31 11:06:38;;;;;;;5.47;3.50;;;22.70;99.90;;;;;;4994527;28;20206;-77
2021/05/31 11:09:07;;;;;;;5.17;3.20;;;22.70;99.90;;;;;;4994386;28;20186;-78
2021/05/31 11:11:36;;;;;;;6.07;3.33;;;22.90;99.90;;;;;;4994829;28;20177;-80
2021/05/31 11:14:02;;;;;;;4.93;3.63;;;23.30;99.90;;;;;;4996678;28;20217;-77
2021/05/31 11:16:32;;;;;;;6.87;3.40;;;23.30;99.90;;;;;;4995936;28;20187;-78
2021/05/31 11:19:00;;;;;;;5.70;3.97;;;23.00;99.90;;;;;;4995804;28;20239;-79
2021/05/31 11:21:30;;;;;;;4.30;3.40;;;22.80;99.90;;;;;;4994634;28;20686;-79
2021/05/31 11:24:18;;;;;;;8.30;3.90;;;22.80;99.90;;;;;;4995925;28;20175;-79
2021/05/31 11:26:47;;;;;;;7.70;3.60;;;22.70;99.90;;;;;;4997081;28;20210;-79
2021/05/31 11:29:12;;;;;;;5.50;4.10;;;22.70;99.90;;;;;;4995620;28;20167;-79
2021/05/31 11:31:40;;;;;;;6.13;3.90;;;22.80;99.90;;;;;;4995627;28;20686;-79
2021/05/31 11:34:07;;;;;;;5.50;3.63;;;22.70;99.90;;;;;;4997302;28;20202;-79
2021/05/31 11:36:32;;;;;;;6.73;4.03;;;22.50;99.90;;;;;;4996254;28;20316;-78
2021/05/31 11:39:00;;;;;;;7.10;3.73;;;22.60;99.90;;;;;;4996035;28;20674;-77
2021/05/31 11:41:49;;;;;;;6.93;4.03;;;22.70;99.90;;;;;;4996713;28;20278;-79
2021/05/31 11:44:24;;;;;;;11.90;4.03;;;22.70;99.90;;;;;;5004079;28;20671;-77
2021/05/31 11:46:57;;;;;;;6.37;3.80;;;22.90;1.00;;;;;;5014598;28;20233;-78
2021/05/31 11:49:25;;;;;;;4.93;3.90;;;22.90;99.90;;;;;;5013772;28;20633;-78
2021/05/31 11:52:10;;;;;;;4.97;4.23;;;22.70;99.90;;;;;;5014680;28;20170;-78
2021/05/31 11:54:39;;;;;;;6.40;4.03;;;22.60;99.90;;;;;;5014218;28;20213;-80
2021/05/31 11:57:13;;;;;;;18.33;5.43;;;22.50;99.90;;;;;;5013623;28;20176;-79
2021/05/31 11:59:43;;;;;;;8.07;4.00;;;22.60;1.00;;;;;;5014688;28;20296;-79
2021/05/31 12:02:15;;;;;;;5.77;3.80;;;22.60;99.90;;;;;;5014605;28;20701;-78
2021/05/31 12:04:46;;;;;;;7.13;4.60;;;22.50;99.90;;;;;;5016406;28;20170;-78
2021/05/31 12:07:14;;;;;;;8.13;4.40;;;22.60;99.90;;;;;;5013577;28;20209;-77
2021/05/31 12:09:45;;;;;;;5.63;4.00;;;22.70;99.90;;;;;;4995114;28;20185;-78
2021/05/31 12:12:16;;;;;;;5.97;4.03;;;22.90;1.00;;;;;;4994104;28;20702;-77
2021/05/31 12:14:48;;;;;;;5.93;4.43;;;23.00;99.90;;;;;;4994798;28;20178;-77
2021/05/31 12:17:15;;;;;;;7.43;3.80;;;23.00;99.90;;;;;;4998610;28;20182;-79
2021/05/31 12:19:43;;;;;;;7.20;3.90;;;23.10;99.90;;;;;;4998720;28;20171;-76
2021/05/31 12:22:10;;;;;;;6.83;3.60;;;23.10;99.90;;;;;;4994122;28;20182;-78
2021/05/31 12:24:38;;;;;;;8.47;3.93;;;23.30;99.90;;;;;;4995303;28;20615;-78
2021/05/31 12:27:05;;;;;;;9.83;3.80;;;23.40;99.90;;;;;;4993947;28;20640;-78
2021/05/31 12:29:35;;;;;;;5.83;3.80;;;23.40;99.90;;;;;;4993547;28;20209;-77
2021/05/31 12:32:03;;;;;;;6.27;3.57;;;23.30;99.90;;;;;;4994574;28;20202;-77
2021/05/31 12:34:29;;;;;;;6.13;3.50;;;23.30;99.90;;;;;;4993795;28;20163;-78
2021/05/31 12:36:55;;;;;;;4.73;3.87;;;23.30;99.90;;;;;;4994063;28;20187;-77
2021/05/31 12:39:22;;;;;;;6.43;3.80;;;23.40;99.90;;;;;;4994665;28;20203;-78
2021/05/31 12:41:48;;;;;;;5.97;4.10;;;23.40;99.90;;;;;;4994214;28;20170;-77
2021/05/31 12:44:14;;;;;;;10.97;3.80;;;23.50;99.90;;;;;;4992823;28;20183;-77
2021/05/31 12:46:42;;;;;;;6.77;3.67;;;23.80;99.90;;;;;;4994492;28;20243;-78
2021/05/31 12:49:08;;;;;;;4.17;3.70;;;24.10;99.90;;;;;;4995456;28;20171;-79
2021/05/31 12:51:35;;;;;;;7.83;3.83;;;24.20;99.90;;;;;;4994377;28;20175;-79
2021/05/31 12:54:03;;;;;;;4.93;3.20;;;24.00;77.10;;;;;;4994937;28;20186;-78
2021/05/31 12:56:31;;;;;;;8.50;3.67;;;23.80;88.70;;;;;;4993822;28;20624;-79
2021/05/31 12:59:04;;;;;;;5.70;3.90;;;23.80;99.90;;;;;;4993550;28;20176;-77
2021/05/31 13:01:31;;;;;;;5.80;3.60;;;24.10;98.50;;;;;;4994973;28;20655;-78
2021/05/31 13:03:57;;;;;;;6.73;3.60;;;23.80;28.20;;;;;;4992630;28;20668;-78
2021/05/31 13:06:35;;;;;;;3.80;3.20;;;23.70;13.30;;;;;;4993748;28;20222;-79
2021/05/31 13:09:03;;;;;;;5.90;3.30;;;23.70;13.70;;;;;;4993698;28;20255;-78
2021/05/31 13:11:44;;;;;;;5.77;3.13;;;23.80;39.80;;;;;;4993943;28;20191;-80
2021/05/31 13:14:18;;;;;;;4.63;3.40;;;23.80;1.00;;;;;;4994372;28;20178;-78
2021/05/31 13:16:58;;;;;;;4.93;3.50;;;23.70;7.10;;;;;;4993531;28;20768;-79
2021/05/31 13:19:33;;;;;;;5.73;3.33;;;24.10;1.00;;;;;;4993857;28;20164;-79
2021/05/31 13:22:05;;;;;;;6.97;3.90;;;24.50;1.00;;;;;;4993007;28;20615;-79
2021/05/31 13:24:32;;;;;;;6.33;3.40;;;24.40;1.00;;;;;;4993140;28;20169;-78
2021/05/31 13:27:09;;;;;;;7.73;3.53;;;24.70;1.00;;;;;;4996269;28;20246;-77
2021/05/31 13:29:34;;;;;;;5.53;3.00;;;24.80;1.00;;;;;;4996467;28;20633;-78
2021/05/31 13:32:09;;;;;;;5.27;3.57;;;24.70;1.00;;;;;;4996954;28;20177;-78
2021/05/31 13:34:36;;;;;;;6.03;3.47;;;24.30;1.00;;;;;;4997141;28;20531;-78
2021/05/31 13:37:10;;;;;;;6.00;3.43;;;24.20;1.00;;;;;;4997129;28;20195;-78
2021/05/31 13:39:35;;;;;;;8.77;3.10;;;24.00;1.00;;;;;;4995456;28;20282;-78
2021/05/31 13:42:01;;;;;;;4.37;3.17;;;23.70;27.90;;;;;;4996823;28;20604;-78
2021/05/31 13:44:28;;;;;;;6.27;3.40;;;23.80;1.00;;;;;;4996564;28;20188;-79
2021/05/31 13:46:53;;;;;;;4.67;2.87;;;23.80;1.00;;;;;;4996691;28;20237;-77
2021/05/31 13:49:19;;;;;;;6.13;3.10;;;23.70;1.00;;;;;;4996452;28;20612;-80
2021/05/31 13:51:47;;;;;;;6.10;3.63;;;23.80;1.00;;;;;;4996468;28;20523;-77
2021/05/31 13:54:13;;;;;;;4.67;3.33;;;24.00;1.00;;;;;;4996288;28;20302;-78
2021/05/31 13:56:40;;;;;;;5.50;3.20;;;24.10;1.00;;;;;;4996231;28;20203;-78
2021/05/31 13:59:06;;;;;;;5.77;3.43;;;24.20;1.00;;;;;;4996361;28;20182;-77
2021/05/31 14:01:33;;;;;;;7.30;3.37;;;24.00;1.00;;;;;;4990903;28;20260;-78
2021/05/31 14:03:59;;;;;;;4.83;3.73;;;24.00;1.00;;;;;;4985191;28;20193;-78
2021/05/31 14:06:25;;;;;;;7.57;3.50;;;24.00;1.00;;;;;;4985806;28;20348;-78
2021/05/31 14:08:52;;;;;;;11.90;4.30;;;24.20;1.00;;;;;;4999528;28;20259;-79
2021/05/31 14:11:18;;;;;;;5.33;3.67;;;24.30;1.00;;;;;;5006966;28;20197;-79
2021/05/31 14:13:44;;;;;;;5.97;3.37;;;24.50;1.00;;;;;;5002434;28;20196;-80
2021/05/31 14:16:09;;;;;;;5.57;3.10;;;24.50;1.00;;;;;;4997243;28;20181;-79
2021/05/31 14:18:35;;;;;;;5.57;3.50;;;24.50;1.00;;;;;;5007648;28;20531;-79
2021/05/31 14:21:00;;;;;;;5.13;3.80;;;24.80;1.00;;;;;;4996247;28;20214;-79
2021/05/31 14:23:26;;;;;;;7.37;4.30;;;24.70;1.00;;;;;;4996958;28;20653;-79
2021/05/31 14:25:55;;;;;;;6.80;4.10;;;24.60;1.00;;;;;;4997223;28;20223;-78